sensor_id;sensor_type;location;lat;lon;timestamp;P1;durP1;ratioP1;P2;durP2;ratioP2
44214;SDS011;29884;47.450;19.124;2023-02-16T00:01:42;66.07;;;33.08;;
44214;SDS011;29884;47.450;19.124;2023-02-16T00:04:27;65.55;;;33.97;;
44214;SDS011;29884;47.450;19.124;2023-02-16T00:06:55;70.72;;;34.28;;
44214;SDS011;29884;47.450;19.124;2023-02-16T00:09:21;69.18;;;33.67;;
44214;SDS011;29884;47.450;19.124;2023-02-16T00:11:48;62.70;;;33.97;;
44214;SDS011;29884;47.450;19.124;2023-02-16T00:14:34;63.90;;;34.45;;
44214;SDS011;29884;47.450;19.124;2023-02-16T00:17:01;65.85;;;34.15;;
44214;SDS011;29884;47.450;19.124;2023-02-16T00:19:28;65.78;;;34.25;;
44214;SDS011;29884;47.450;19.124;2023-02-16T00:21:55;66.72;;;33.80;;
44214;SDS011;29884;47.450;19.124;2023-02-16T00:24:23;65.05;;;33.33;;
44214;SDS011;29884;47.450;19.124;2023-02-16T00:26:51;67.32;;;34.08;;
44214;SDS011;29884;47.450;19.124;2023-02-16T00:31:46;64.60;;;33.47;;
44214;SDS011;29884;47.450;19.124;2023-02-16T00:34:45;65.00;;;34.17;;
44214;SDS011;29884;47.450;19.124;2023-02-16T00:37:06;71.40;;;34.77;;
44214;SDS011;29884;47.450;19.124;2023-02-16T00:39:34;64.75;;;34.05;;
44214;SDS011;29884;47.450;19.124;2023-02-16T00:42:00;69.32;;;34.67;;
44214;SDS011;29884;47.450;19.124;2023-02-16T00:44:36;64.85;;;32.90;;
44214;SDS011;29884;47.450;19.124;2023-02-16T00:49:51;69.47;;;34.20;;
44214;SDS011;29884;47.450;19.124;2023-02-16T00:55:04;70.90;;;36.83;;
44214;SDS011;29884;47.450;19.124;2023-02-16T00:57:46;65.90;;;34.60;;
44214;SDS011;29884;47.450;19.124;2023-02-16T01:00:29;64.95;;;33.47;;
44214;SDS011;29884;47.450;19.124;2023-02-16T01:03:00;70.18;;;34.80;;
44214;SDS011;29884;47.450;19.124;2023-02-16T01:05:28;73.68;;;35.60;;
44214;SDS011;29884;47.450;19.124;2023-02-16T01:07:54;66.63;;;35.40;;
44214;SDS011;29884;47.450;19.124;2023-02-16T01:10:39;68.95;;;36.15;;
44214;SDS011;29884;47.450;19.124;2023-02-16T01:13:23;68.22;;;34.80;;
44214;SDS011;29884;47.450;19.124;2023-02-16T01:15:51;66.00;;;34.38;;
44214;SDS011;29884;47.450;19.124;2023-02-16T01:18:17;64.30;;;33.70;;
44214;SDS011;29884;47.450;19.124;2023-02-16T01:20:44;70.72;;;34.50;;
44214;SDS011;29884;47.450;19.124;2023-02-16T01:23:10;63.95;;;33.33;;
44214;SDS011;29884;47.450;19.124;2023-02-16T01:25:36;64.75;;;34.13;;
44214;SDS011;29884;47.450;19.124;2023-02-16T01:28:07;62.70;;;33.33;;
44214;SDS011;29884;47.450;19.124;2023-02-16T01:30:46;67.07;;;33.00;;
44214;SDS011;29884;47.450;19.124;2023-02-16T01:33:12;70.47;;;34.22;;
44214;SDS011;29884;47.450;19.124;2023-02-16T01:35:38;66.82;;;34.03;;
44214;SDS011;29884;47.450;19.124;2023-02-16T01:38:04;68.35;;;32.95;;
44214;SDS011;29884;47.450;19.124;2023-02-16T01:45:48;66.40;;;33.17;;
44214;SDS011;29884;47.450;19.124;2023-02-16T01:48:30;64.93;;;33.15;;
44214;SDS011;29884;47.450;19.124;2023-02-16T01:53:30;60.90;;;31.13;;
44214;SDS011;29884;47.450;19.124;2023-02-16T01:56:12;62.55;;;30.95;;
44214;SDS011;29884;47.450;19.124;2023-02-16T01:58:45;60.63;;;31.92;;
44214;SDS011;29884;47.450;19.124;2023-02-16T02:04:07;62.95;;;32.03;;
44214;SDS011;29884;47.450;19.124;2023-02-16T02:07:04;57.92;;;30.40;;
44214;SDS011;29884;47.450;19.124;2023-02-16T02:09:42;61.97;;;31.40;;
44214;SDS011;29884;47.450;19.124;2023-02-16T02:12:26;58.83;;;31.35;;
44214;SDS011;29884;47.450;19.124;2023-02-16T02:14:58;61.22;;;30.42;;
44214;SDS011;29884;47.450;19.124;2023-02-16T02:17:24;64.25;;;31.38;;
44214;SDS011;29884;47.450;19.124;2023-02-16T02:27:56;56.92;;;30.27;;
44214;SDS011;29884;47.450;19.124;2023-02-16T02:30:30;60.22;;;31.23;;
44214;SDS011;29884;47.450;19.124;2023-02-16T02:39:35;59.00;;;29.90;;
44214;SDS011;29884;47.450;19.124;2023-02-16T02:42:32;54.92;;;29.75;;
44214;SDS011;29884;47.450;19.124;2023-02-16T02:48:04;59.28;;;28.63;;
44214;SDS011;29884;47.450;19.124;2023-02-16T02:50:37;60.95;;;31.27;;
44214;SDS011;29884;47.450;19.124;2023-02-16T02:53:10;64.18;;;31.48;;
44214;SDS011;29884;47.450;19.124;2023-02-16T02:55:39;60.10;;;30.65;;
44214;SDS011;29884;47.450;19.124;2023-02-16T02:58:31;59.15;;;29.17;;
44214;SDS011;29884;47.450;19.124;2023-02-16T03:01:18;56.45;;;29.65;;
44214;SDS011;29884;47.450;19.124;2023-02-16T03:03:47;55.30;;;29.50;;
44214;SDS011;29884;47.450;19.124;2023-02-16T03:08:46;57.15;;;29.65;;
44214;SDS011;29884;47.450;19.124;2023-02-16T03:11:18;58.72;;;29.45;;
44214;SDS011;29884;47.450;19.124;2023-02-16T03:14:19;57.53;;;29.67;;
44214;SDS011;29884;47.450;19.124;2023-02-16T03:16:54;62.45;;;29.92;;
44214;SDS011;29884;47.450;19.124;2023-02-16T03:19:42;56.95;;;29.27;;
44214;SDS011;29884;47.450;19.124;2023-02-16T03:22:28;60.47;;;30.63;;
44214;SDS011;29884;47.450;19.124;2023-02-16T03:25:14;60.70;;;30.75;;
44214;SDS011;29884;47.450;19.124;2023-02-16T03:27:59;59.10;;;31.00;;
44214;SDS011;29884;47.450;19.124;2023-02-16T03:30:45;62.72;;;31.40;;
44214;SDS011;29884;47.450;19.124;2023-02-16T03:33:11;56.47;;;31.05;;
44214;SDS011;29884;47.450;19.124;2023-02-16T03:35:37;62.88;;;31.67;;
44214;SDS011;29884;47.450;19.124;2023-02-16T03:38:03;59.92;;;31.50;;
44214;SDS011;29884;47.450;19.124;2023-02-16T03:40:29;61.55;;;32.38;;
44214;SDS011;29884;47.450;19.124;2023-02-16T03:43:02;67.32;;;31.67;;
44214;SDS011;29884;47.450;19.124;2023-02-16T03:45:30;63.83;;;32.42;;
44214;SDS011;29884;47.450;19.124;2023-02-16T03:47:59;65.55;;;33.83;;
44214;SDS011;29884;47.450;19.124;2023-02-16T03:50:25;66.07;;;33.55;;
44214;SDS011;29884;47.450;19.124;2023-02-16T03:52:51;66.05;;;32.92;;
44214;SDS011;29884;47.450;19.124;2023-02-16T03:55:30;63.70;;;32.50;;
44214;SDS011;29884;47.450;19.124;2023-02-16T03:57:59;66.57;;;35.45;;
44214;SDS011;29884;47.450;19.124;2023-02-16T04:00:26;70.15;;;35.10;;
44214;SDS011;29884;47.450;19.124;2023-02-16T04:02:52;69.70;;;34.25;;
44214;SDS011;29884;47.450;19.124;2023-02-16T04:05:17;65.85;;;34.08;;
44214;SDS011;29884;47.450;19.124;2023-02-16T04:07:43;66.88;;;34.40;;
44214;SDS011;29884;47.450;19.124;2023-02-16T04:10:09;70.05;;;35.60;;
44214;SDS011;29884;47.450;19.124;2023-02-16T04:12:35;74.05;;;37.40;;
44214;SDS011;29884;47.450;19.124;2023-02-16T04:15:01;75.85;;;37.72;;
44214;SDS011;29884;47.450;19.124;2023-02-16T04:17:39;70.15;;;36.65;;
44214;SDS011;29884;47.450;19.124;2023-02-16T04:20:05;72.97;;;38.33;;
44214;SDS011;29884;47.450;19.124;2023-02-16T04:22:34;75.40;;;38.92;;
44214;SDS011;29884;47.450;19.124;2023-02-16T04:25:00;82.80;;;40.60;;
44214;SDS011;29884;47.450;19.124;2023-02-16T04:27:25;91.65;;;43.78;;
44214;SDS011;29884;47.450;19.124;2023-02-16T04:29:51;88.28;;;42.95;;
44214;SDS011;29884;47.450;19.124;2023-02-16T04:32:17;87.20;;;43.55;;
44214;SDS011;29884;47.450;19.124;2023-02-16T04:34:42;98.47;;;44.97;;
44214;SDS011;29884;47.450;19.124;2023-02-16T04:37:08;96.65;;;46.00;;
44214;SDS011;29884;47.450;19.124;2023-02-16T04:39:34;91.22;;;45.60;;
44214;SDS011;29884;47.450;19.124;2023-02-16T04:42:00;92.22;;;44.17;;
44214;SDS011;29884;47.450;19.124;2023-02-16T04:44:25;97.75;;;43.85;;
44214;SDS011;29884;47.450;19.124;2023-02-16T04:46:51;96.93;;;46.60;;
44214;SDS011;29884;47.450;19.124;2023-02-16T04:49:17;98.03;;;47.10;;
44214;SDS011;29884;47.450;19.124;2023-02-16T04:51:42;100.82;;;46.03;;
44214;SDS011;29884;47.450;19.124;2023-02-16T04:54:08;101.53;;;47.20;;
44214;SDS011;29884;47.450;19.124;2023-02-16T04:56:34;100.85;;;46.90;;
44214;SDS011;29884;47.450;19.124;2023-02-16T04:59:00;94.65;;;46.80;;
44214;SDS011;29884;47.450;19.124;2023-02-16T05:01:26;99.00;;;45.45;;
44214;SDS011;29884;47.450;19.124;2023-02-16T05:03:52;95.22;;;46.22;;
44214;SDS011;29884;47.450;19.124;2023-02-16T05:06:18;108.85;;;52.30;;
44214;SDS011;29884;47.450;19.124;2023-02-16T05:08:44;107.03;;;51.80;;
44214;SDS011;29884;47.450;19.124;2023-02-16T05:11:10;115.30;;;53.30;;
44214;SDS011;29884;47.450;19.124;2023-02-16T05:13:55;99.30;;;46.80;;
44214;SDS011;29884;47.450;19.124;2023-02-16T05:16:40;99.05;;;47.03;;
44214;SDS011;29884;47.450;19.124;2023-02-16T05:19:06;92.90;;;46.38;;
44214;SDS011;29884;47.450;19.124;2023-02-16T05:21:32;98.22;;;46.00;;
44214;SDS011;29884;47.450;19.124;2023-02-16T05:24:00;101.78;;;46.53;;
44214;SDS011;29884;47.450;19.124;2023-02-16T05:26:30;96.75;;;44.95;;
44214;SDS011;29884;47.450;19.124;2023-02-16T05:28:57;99.55;;;44.83;;
44214;SDS011;29884;47.450;19.124;2023-02-16T05:31:23;95.15;;;42.65;;
44214;SDS011;29884;47.450;19.124;2023-02-16T05:33:50;96.72;;;43.88;;
44214;SDS011;29884;47.450;19.124;2023-02-16T05:36:16;91.55;;;43.60;;
44214;SDS011;29884;47.450;19.124;2023-02-16T05:38:41;97.30;;;44.15;;
44214;SDS011;29884;47.450;19.124;2023-02-16T05:41:07;89.15;;;39.00;;
44214;SDS011;29884;47.450;19.124;2023-02-16T05:43:33;93.63;;;38.97;;
44214;SDS011;29884;47.450;19.124;2023-02-16T05:45:59;98.65;;;39.65;;
44214;SDS011;29884;47.450;19.124;2023-02-16T05:48:30;97.93;;;39.28;;
44214;SDS011;29884;47.450;19.124;2023-02-16T05:50:55;100.15;;;40.47;;
44214;SDS011;29884;47.450;19.124;2023-02-16T05:53:21;107.82;;;40.78;;
44214;SDS011;29884;47.450;19.124;2023-02-16T05:55:47;101.50;;;39.15;;
44214;SDS011;29884;47.450;19.124;2023-02-16T05:58:13;87.70;;;37.92;;
44214;SDS011;29884;47.450;19.124;2023-02-16T06:00:38;99.28;;;38.90;;
44214;SDS011;29884;47.450;19.124;2023-02-16T06:03:04;99.47;;;40.40;;
44214;SDS011;29884;47.450;19.124;2023-02-16T06:05:30;89.30;;;38.10;;
44214;SDS011;29884;47.450;19.124;2023-02-16T06:07:55;94.60;;;38.85;;
44214;SDS011;29884;47.450;19.124;2023-02-16T06:10:21;95.30;;;39.10;;
44214;SDS011;29884;47.450;19.124;2023-02-16T06:12:47;90.10;;;37.85;;
44214;SDS011;29884;47.450;19.124;2023-02-16T06:15:12;85.20;;;36.42;;
44214;SDS011;29884;47.450;19.124;2023-02-16T06:17:38;72.82;;;32.20;;
44214;SDS011;29884;47.450;19.124;2023-02-16T06:20:04;73.82;;;29.90;;
44214;SDS011;29884;47.450;19.124;2023-02-16T06:22:30;64.97;;;27.50;;
44214;SDS011;29884;47.450;19.124;2023-02-16T06:24:56;61.17;;;29.20;;
44214;SDS011;29884;47.450;19.124;2023-02-16T06:27:21;58.83;;;26.95;;
44214;SDS011;29884;47.450;19.124;2023-02-16T06:29:47;63.38;;;29.35;;
44214;SDS011;29884;47.450;19.124;2023-02-16T06:32:13;53.70;;;26.80;;
44214;SDS011;29884;47.450;19.124;2023-02-16T06:34:39;69.20;;;30.77;;
44214;SDS011;29884;47.450;19.124;2023-02-16T06:37:04;60.33;;;27.70;;
44214;SDS011;29884;47.450;19.124;2023-02-16T06:39:30;52.30;;;25.88;;
44214;SDS011;29884;47.450;19.124;2023-02-16T06:41:56;61.47;;;27.23;;
44214;SDS011;29884;47.450;19.124;2023-02-16T06:44:21;64.07;;;29.65;;
44214;SDS011;29884;47.450;19.124;2023-02-16T06:46:47;76.00;;;26.58;;
44214;SDS011;29884;47.450;19.124;2023-02-16T06:49:17;55.28;;;25.63;;
44214;SDS011;29884;47.450;19.124;2023-02-16T06:51:44;59.53;;;26.00;;
44214;SDS011;29884;47.450;19.124;2023-02-16T06:54:10;45.97;;;24.63;;
44214;SDS011;29884;47.450;19.124;2023-02-16T06:56:36;47.05;;;24.70;;
44214;SDS011;29884;47.450;19.124;2023-02-16T06:59:01;47.65;;;24.25;;
44214;SDS011;29884;47.450;19.124;2023-02-16T07:01:27;53.65;;;24.40;;
44214;SDS011;29884;47.450;19.124;2023-02-16T07:03:54;70.25;;;23.33;;
44214;SDS011;29884;47.450;19.124;2023-02-16T07:06:21;48.53;;;23.75;;
44214;SDS011;29884;47.450;19.124;2023-02-16T07:08:49;55.08;;;24.63;;
44214;SDS011;29884;47.450;19.124;2023-02-16T07:11:15;67.82;;;23.98;;
44214;SDS011;29884;47.450;19.124;2023-02-16T07:13:41;91.85;;;23.67;;
44214;SDS011;29884;47.450;19.124;2023-02-16T07:16:07;61.58;;;24.23;;
44214;SDS011;29884;47.450;19.124;2023-02-16T07:18:33;43.08;;;23.45;;
44214;SDS011;29884;47.450;19.124;2023-02-16T07:21:00;53.10;;;24.60;;
44214;SDS011;29884;47.450;19.124;2023-02-16T07:23:26;57.42;;;25.90;;
44214;SDS011;29884;47.450;19.124;2023-02-16T07:25:52;53.95;;;25.13;;
44214;SDS011;29884;47.450;19.124;2023-02-16T07:28:18;51.90;;;25.80;;
44214;SDS011;29884;47.450;19.124;2023-02-16T07:30:43;49.25;;;25.40;;
44214;SDS011;29884;47.450;19.124;2023-02-16T07:33:09;57.47;;;24.90;;
44214;SDS011;29884;47.450;19.124;2023-02-16T07:35:35;54.28;;;25.67;;
44214;SDS011;29884;47.450;19.124;2023-02-16T07:38:02;69.30;;;28.02;;
44214;SDS011;29884;47.450;19.124;2023-02-16T07:40:28;56.30;;;27.88;;
44214;SDS011;29884;47.450;19.124;2023-02-16T07:42:54;56.75;;;27.35;;
44214;SDS011;29884;47.450;19.124;2023-02-16T07:45:24;60.63;;;29.00;;
44214;SDS011;29884;47.450;19.124;2023-02-16T07:47:49;98.10;;;29.65;;
44214;SDS011;29884;47.450;19.124;2023-02-16T07:50:15;60.53;;;29.90;;
44214;SDS011;29884;47.450;19.124;2023-02-16T07:52:41;58.45;;;29.48;;
44214;SDS011;29884;47.450;19.124;2023-02-16T07:55:07;70.25;;;29.20;;
44214;SDS011;29884;47.450;19.124;2023-02-16T07:57:33;62.75;;;30.08;;
44214;SDS011;29884;47.450;19.124;2023-02-16T07:59:59;61.15;;;31.40;;
44214;SDS011;29884;47.450;19.124;2023-02-16T08:02:24;60.10;;;29.80;;
44214;SDS011;29884;47.450;19.124;2023-02-16T08:04:51;61.67;;;30.35;;
44214;SDS011;29884;47.450;19.124;2023-02-16T08:07:17;65.97;;;31.65;;
44214;SDS011;29884;47.450;19.124;2023-02-16T08:12:19;63.17;;;32.72;;
44214;SDS011;29884;47.450;19.124;2023-02-16T08:14:45;66.82;;;32.03;;
44214;SDS011;29884;47.450;19.124;2023-02-16T08:17:11;60.55;;;31.48;;
44214;SDS011;29884;47.450;19.124;2023-02-16T08:19:37;79.40;;;35.08;;
44214;SDS011;29884;47.450;19.124;2023-02-16T08:22:04;66.30;;;34.97;;
44214;SDS011;29884;47.450;19.124;2023-02-16T08:24:30;68.68;;;34.03;;
44214;SDS011;29884;47.450;19.124;2023-02-16T08:26:58;64.22;;;34.45;;
44214;SDS011;29884;47.450;19.124;2023-02-16T08:29:24;73.45;;;35.97;;
44214;SDS011;29884;47.450;19.124;2023-02-16T08:31:50;69.85;;;34.92;;
44214;SDS011;29884;47.450;19.124;2023-02-16T08:34:19;80.25;;;38.50;;
44214;SDS011;29884;47.450;19.124;2023-02-16T08:36:45;83.80;;;39.45;;
44214;SDS011;29884;47.450;19.124;2023-02-16T08:39:17;76.82;;;38.28;;
44214;SDS011;29884;47.450;19.124;2023-02-16T08:41:46;81.80;;;39.78;;
44214;SDS011;29884;47.450;19.124;2023-02-16T08:44:13;81.93;;;38.97;;
44214;SDS011;29884;47.450;19.124;2023-02-16T08:46:41;85.78;;;39.35;;
44214;SDS011;29884;47.450;19.124;2023-02-16T08:49:08;79.50;;;40.40;;
44214;SDS011;29884;47.450;19.124;2023-02-16T08:51:35;76.38;;;38.10;;
44214;SDS011;29884;47.450;19.124;2023-02-16T08:54:05;77.65;;;37.95;;
44214;SDS011;29884;47.450;19.124;2023-02-16T08:56:34;78.97;;;36.97;;
44214;SDS011;29884;47.450;19.124;2023-02-16T08:59:00;74.60;;;38.33;;
44214;SDS011;29884;47.450;19.124;2023-02-16T09:01:26;86.60;;;40.05;;
44214;SDS011;29884;47.450;19.124;2023-02-16T09:03:52;76.40;;;37.55;;
44214;SDS011;29884;47.450;19.124;2023-02-16T09:06:18;81.00;;;39.92;;
44214;SDS011;29884;47.450;19.124;2023-02-16T09:08:55;77.90;;;39.50;;
44214;SDS011;29884;47.450;19.124;2023-02-16T09:11:21;75.22;;;39.90;;
44214;SDS011;29884;47.450;19.124;2023-02-16T09:13:48;79.60;;;39.72;;
44214;SDS011;29884;47.450;19.124;2023-02-16T09:16:18;78.85;;;40.22;;
44214;SDS011;29884;47.450;19.124;2023-02-16T09:18:46;79.43;;;39.38;;
44214;SDS011;29884;47.450;19.124;2023-02-16T09:21:16;87.03;;;42.13;;
44214;SDS011;29884;47.450;19.124;2023-02-16T09:23:45;80.32;;;40.30;;
44214;SDS011;29884;47.450;19.124;2023-02-16T09:26:13;85.88;;;41.47;;
44214;SDS011;29884;47.450;19.124;2023-02-16T09:28:43;85.28;;;40.38;;
44214;SDS011;29884;47.450;19.124;2023-02-16T09:33:40;69.78;;;37.60;;
44214;SDS011;29884;47.450;19.124;2023-02-16T09:36:07;72.72;;;36.88;;
44214;SDS011;29884;47.450;19.124;2023-02-16T09:38:34;70.97;;;36.10;;
44214;SDS011;29884;47.450;19.124;2023-02-16T09:43:50;69.07;;;36.33;;
44214;SDS011;29884;47.450;19.124;2023-02-16T09:46:22;69.15;;;34.70;;
44214;SDS011;29884;47.450;19.124;2023-02-16T09:48:49;70.28;;;33.95;;
44214;SDS011;29884;47.450;19.124;2023-02-16T09:51:19;68.32;;;34.67;;
44214;SDS011;29884;47.450;19.124;2023-02-16T09:53:55;68.45;;;34.53;;
44214;SDS011;29884;47.450;19.124;2023-02-16T10:10:19;60.78;;;32.28;;
44214;SDS011;29884;47.450;19.124;2023-02-16T10:12:49;68.28;;;34.45;;
44214;SDS011;29884;47.450;19.124;2023-02-16T10:15:27;59.65;;;32.47;;
44214;SDS011;29884;47.450;19.124;2023-02-16T10:17:58;63.63;;;33.47;;
44214;SDS011;29884;47.450;19.124;2023-02-16T10:20:54;63.40;;;33.63;;
44214;SDS011;29884;47.450;19.124;2023-02-16T10:24:23;65.95;;;34.63;;
44214;SDS011;29884;47.450;19.124;2023-02-16T10:26:28;63.35;;;34.05;;
44214;SDS011;29884;47.450;19.124;2023-02-16T10:29:02;67.07;;;35.50;;
44214;SDS011;29884;47.450;19.124;2023-02-16T10:31:39;66.60;;;35.95;;
44214;SDS011;29884;47.450;19.124;2023-02-16T10:42:53;61.70;;;33.03;;
44214;SDS011;29884;47.450;19.124;2023-02-16T10:48:05;59.20;;;31.45;;
44214;SDS011;29884;47.450;19.124;2023-02-16T10:50:38;58.05;;;30.45;;
44214;SDS011;29884;47.450;19.124;2023-02-16T10:55:56;58.40;;;32.83;;
44214;SDS011;29884;47.450;19.124;2023-02-16T10:58:27;59.15;;;31.67;;
44214;SDS011;29884;47.450;19.124;2023-02-16T11:01:12;59.40;;;32.40;;
44214;SDS011;29884;47.450;19.124;2023-02-16T11:03:49;56.17;;;30.50;;
44214;SDS011;29884;47.450;19.124;2023-02-16T11:06:21;62.38;;;33.15;;
44214;SDS011;29884;47.450;19.124;2023-02-16T11:08:50;59.08;;;31.92;;
44214;SDS011;29884;47.450;19.124;2023-02-16T11:11:20;66.43;;;33.70;;
44214;SDS011;29884;47.450;19.124;2023-02-16T11:14:02;62.38;;;34.15;;
44214;SDS011;29884;47.450;19.124;2023-02-16T11:16:42;60.58;;;32.95;;
44214;SDS011;29884;47.450;19.124;2023-02-16T11:19:17;61.05;;;33.13;;
44214;SDS011;29884;47.450;19.124;2023-02-16T11:21:50;58.47;;;31.58;;
44214;SDS011;29884;47.450;19.124;2023-02-16T11:24:33;61.15;;;33.55;;
44214;SDS011;29884;47.450;19.124;2023-02-16T11:29:32;56.20;;;30.73;;
44214;SDS011;29884;47.450;19.124;2023-02-16T11:31:58;58.80;;;30.83;;
44214;SDS011;29884;47.450;19.124;2023-02-16T11:37:05;55.45;;;30.45;;
44214;SDS011;29884;47.450;19.124;2023-02-16T11:39:33;58.55;;;32.70;;
44214;SDS011;29884;47.450;19.124;2023-02-16T11:42:05;59.42;;;32.17;;
44214;SDS011;29884;47.450;19.124;2023-02-16T11:44:34;60.22;;;33.83;;
44214;SDS011;29884;47.450;19.124;2023-02-16T11:47:19;61.13;;;33.42;;
44214;SDS011;29884;47.450;19.124;2023-02-16T11:49:47;60.33;;;32.60;;
44214;SDS011;29884;47.450;19.124;2023-02-16T11:54:55;57.63;;;32.17;;
44214;SDS011;29884;47.450;19.124;2023-02-16T11:57:27;61.72;;;33.42;;
44214;SDS011;29884;47.450;19.124;2023-02-16T11:59:55;59.60;;;31.80;;
44214;SDS011;29884;47.450;19.124;2023-02-16T12:21:49;60.83;;;30.83;;
44214;SDS011;29884;47.450;19.124;2023-02-16T12:27:03;55.10;;;31.50;;
44214;SDS011;29884;47.450;19.124;2023-02-16T12:29:57;66.55;;;34.35;;
44214;SDS011;29884;47.450;19.124;2023-02-16T12:37:44;50.10;;;27.55;;
44214;SDS011;29884;47.450;19.124;2023-02-16T12:51:42;53.25;;;29.00;;
44214;SDS011;29884;47.450;19.124;2023-02-16T12:56:59;49.33;;;28.55;;
44214;SDS011;29884;47.450;19.124;2023-02-16T12:59:49;50.03;;;28.33;;
44214;SDS011;29884;47.450;19.124;2023-02-16T13:05:12;49.13;;;29.02;;
44214;SDS011;29884;47.450;19.124;2023-02-16T13:07:45;51.08;;;30.25;;
44214;SDS011;29884;47.450;19.124;2023-02-16T13:15:24;50.58;;;30.00;;
44214;SDS011;29884;47.450;19.124;2023-02-16T13:17:57;51.42;;;28.35;;
44214;SDS011;29884;47.450;19.124;2023-02-16T13:20:28;52.70;;;28.15;;
44214;SDS011;29884;47.450;19.124;2023-02-16T13:28:32;49.88;;;28.10;;
44214;SDS011;29884;47.450;19.124;2023-02-16T13:31:20;49.80;;;27.88;;
44214;SDS011;29884;47.450;19.124;2023-02-16T13:45:49;48.67;;;27.75;;
44214;SDS011;29884;47.450;19.124;2023-02-16T13:48:26;44.42;;;25.73;;
44214;SDS011;29884;47.450;19.124;2023-02-16T13:51:03;46.45;;;27.33;;
44214;SDS011;29884;47.450;19.124;2023-02-16T13:53:35;46.83;;;26.83;;
44214;SDS011;29884;47.450;19.124;2023-02-16T13:58:53;48.08;;;27.70;;
44214;SDS011;29884;47.450;19.124;2023-02-16T14:03:58;44.95;;;27.05;;
44214;SDS011;29884;47.450;19.124;2023-02-16T14:12:38;44.00;;;26.42;;
44214;SDS011;29884;47.450;19.124;2023-02-16T14:17:15;44.53;;;25.70;;
44214;SDS011;29884;47.450;19.124;2023-02-16T14:19:55;43.70;;;25.73;;
44214;SDS011;29884;47.450;19.124;2023-02-16T14:25:05;46.78;;;26.27;;
44214;SDS011;29884;47.450;19.124;2023-02-16T14:27:55;45.70;;;26.52;;
44214;SDS011;29884;47.450;19.124;2023-02-16T14:30:28;43.20;;;25.80;;
44214;SDS011;29884;47.450;19.124;2023-02-16T14:35:42;45.22;;;25.42;;
44214;SDS011;29884;47.450;19.124;2023-02-16T14:40:56;39.20;;;24.45;;
44214;SDS011;29884;47.450;19.124;2023-02-16T14:43:33;43.15;;;25.08;;
44214;SDS011;29884;47.450;19.124;2023-02-16T14:57:30;42.55;;;25.40;;
44214;SDS011;29884;47.450;19.124;2023-02-16T15:00:23;43.70;;;24.85;;
44214;SDS011;29884;47.450;19.124;2023-02-16T15:05:42;40.60;;;24.27;;
44214;SDS011;29884;47.450;19.124;2023-02-16T15:08:21;40.72;;;25.33;;
44214;SDS011;29884;47.450;19.124;2023-02-16T15:10:58;41.72;;;24.60;;
44214;SDS011;29884;47.450;19.124;2023-02-16T15:13:30;46.88;;;25.58;;
44214;SDS011;29884;47.450;19.124;2023-02-16T15:15:59;45.30;;;24.90;;
44214;SDS011;29884;47.450;19.124;2023-02-16T15:18:27;44.60;;;25.95;;
44214;SDS011;29884;47.450;19.124;2023-02-16T15:20:57;46.55;;;26.13;;
44214;SDS011;29884;47.450;19.124;2023-02-16T15:23:24;46.20;;;26.90;;
44214;SDS011;29884;47.450;19.124;2023-02-16T15:25:53;41.88;;;26.08;;
44214;SDS011;29884;47.450;19.124;2023-02-16T15:28:28;45.25;;;26.83;;
44214;SDS011;29884;47.450;19.124;2023-02-16T15:31:03;44.17;;;25.70;;
44214;SDS011;29884;47.450;19.124;2023-02-16T15:33:42;51.88;;;27.02;;
44214;SDS011;29884;47.450;19.124;2023-02-16T15:36:16;45.50;;;26.83;;
44214;SDS011;29884;47.450;19.124;2023-02-16T15:38:58;47.85;;;26.42;;
44214;SDS011;29884;47.450;19.124;2023-02-16T15:41:33;44.05;;;26.27;;
44214;SDS011;29884;47.450;19.124;2023-02-16T15:44:04;48.15;;;26.90;;
44214;SDS011;29884;47.450;19.124;2023-02-16T15:46:32;45.53;;;26.67;;
44214;SDS011;29884;47.450;19.124;2023-02-16T15:49:20;47.67;;;26.35;;
44214;SDS011;29884;47.450;19.124;2023-02-16T15:51:50;44.97;;;25.85;;
44214;SDS011;29884;47.450;19.124;2023-02-16T15:56:55;46.75;;;26.23;;
44214;SDS011;29884;47.450;19.124;2023-02-16T15:59:33;44.67;;;25.48;;
44214;SDS011;29884;47.450;19.124;2023-02-16T16:02:09;45.10;;;25.30;;
44214;SDS011;29884;47.450;19.124;2023-02-16T16:04:55;46.90;;;26.67;;
44214;SDS011;29884;47.450;19.124;2023-02-16T16:09:57;45.90;;;28.42;;
44214;SDS011;29884;47.450;19.124;2023-02-16T16:12:24;50.97;;;29.35;;
44214;SDS011;29884;47.450;19.124;2023-02-16T16:14:57;45.72;;;27.88;;
44214;SDS011;29884;47.450;19.124;2023-02-16T16:17:28;50.33;;;28.52;;
44214;SDS011;29884;47.450;19.124;2023-02-16T16:19:56;49.40;;;27.63;;
44214;SDS011;29884;47.450;19.124;2023-02-16T16:22:41;46.00;;;27.77;;
44214;SDS011;29884;47.450;19.124;2023-02-16T16:28:32;53.27;;;28.50;;
44214;SDS011;29884;47.450;19.124;2023-02-16T16:31:08;47.58;;;27.80;;
44214;SDS011;29884;47.450;19.124;2023-02-16T16:36:28;54.65;;;31.98;;
44214;SDS011;29884;47.450;19.124;2023-02-16T16:41:40;63.60;;;32.45;;
44214;SDS011;29884;47.450;19.124;2023-02-16T16:44:09;58.40;;;33.50;;
44214;SDS011;29884;47.450;19.124;2023-02-16T16:46:48;64.03;;;34.92;;
44214;SDS011;29884;47.450;19.124;2023-02-16T16:49:14;60.78;;;34.55;;
44214;SDS011;29884;47.450;19.124;2023-02-16T16:51:41;62.13;;;33.85;;
44214;SDS011;29884;47.450;19.124;2023-02-16T16:56:57;67.38;;;34.35;;
44214;SDS011;29884;47.450;19.124;2023-02-16T16:59:23;61.47;;;34.20;;
44214;SDS011;29884;47.450;19.124;2023-02-16T17:01:49;63.50;;;32.45;;
44214;SDS011;29884;47.450;19.124;2023-02-16T17:04:16;57.28;;;33.67;;
44214;SDS011;29884;47.450;19.124;2023-02-16T17:06:42;76.18;;;36.80;;
44214;SDS011;29884;47.450;19.124;2023-02-16T17:09:07;64.93;;;34.65;;
44214;SDS011;29884;47.450;19.124;2023-02-16T17:11:34;59.20;;;34.58;;
44214;SDS011;29884;47.450;19.124;2023-02-16T17:16:36;57.20;;;33.10;;
44214;SDS011;29884;47.450;19.124;2023-02-16T17:19:04;63.97;;;34.75;;
44214;SDS011;29884;47.450;19.124;2023-02-16T17:21:30;62.55;;;34.20;;
44214;SDS011;29884;47.450;19.124;2023-02-16T17:23:56;60.40;;;33.28;;
44214;SDS011;29884;47.450;19.124;2023-02-16T17:26:21;61.67;;;33.83;;
44214;SDS011;29884;47.450;19.124;2023-02-16T17:28:47;61.45;;;34.47;;
44214;SDS011;29884;47.450;19.124;2023-02-16T17:31:14;58.92;;;34.50;;
44214;SDS011;29884;47.450;19.124;2023-02-16T17:33:40;65.97;;;36.40;;
44214;SDS011;29884;47.450;19.124;2023-02-16T17:36:06;62.78;;;36.28;;
44214;SDS011;29884;47.450;19.124;2023-02-16T17:38:32;63.65;;;35.97;;
44214;SDS011;29884;47.450;19.124;2023-02-16T17:40:58;63.92;;;35.03;;
44214;SDS011;29884;47.450;19.124;2023-02-16T17:43:25;65.18;;;37.90;;
44214;SDS011;29884;47.450;19.124;2023-02-16T17:45:51;61.53;;;36.15;;
44214;SDS011;29884;47.450;19.124;2023-02-16T17:48:28;59.35;;;35.13;;
44214;SDS011;29884;47.450;19.124;2023-02-16T17:50:55;64.72;;;35.45;;
44214;SDS011;29884;47.450;19.124;2023-02-16T17:53:22;72.82;;;41.28;;